Aérodrome :
LOGIN :

S'inscrire | Disclaimer

   EN    FR    IT 

 










Légende :    VFR   VFR Marginal   IFR   IFR Intensif   IFR Très Intensif
Visi : 
Plafond : 
>= 8 km
>= 3000ft
5 à 8 km
1000 à 3000 ft
1500m à 5 km
500 à 1000 ft
800 à 1500m
200 à 500 ft
< 800m
< 200 ft
Symboles :   Orages  Brouillard  Fortes neiges  Fortes précipitations  Vent > 20 kt
SIGMETs :   Divers  Orages  Givrage  Turbulence  Onde Orograph.  Cendres Volcan.






- Altitude de l'aérodrome : 405 ft
- Code IATA : JMK


LGMK - Mikonos

DERNIER METAR :
  • 282250Z VRB03KT CAVOK 19/12 Q1013

METARs EXPIRÉS :
  • 282150Z VRB03KT CAVOK 19/13 Q1013
  • 282120Z VRB03KT CAVOK 19/12 Q1014
  • 282050Z 30004KT CAVOK 19/12 Q1014
  • 282020Z VRB03KT CAVOK 19/12 Q1014
  • 281950Z 30004KT CAVOK 20/11 Q1014
  • 281920Z 30004KT CAVOK 20/11 Q1014
  • 281850Z VRB01KT CAVOK 20/10 Q1013
  • 281820Z VRB03KT CAVOK 20/11 Q1013

TAF TAF LGMK
Valide du 28 à 21h jusqu'au 29 à 06h UTC


282000Z 2821/2906 VRB05KT 9999 FEW025



MET'MAP, la Météo Aéronautique d'un coup d'oeil ! - Copyright ORBIFLY Décembre 2007 - Disclaimer

ORBIFLY MET'MAP TEAM :

Programmation & Développement : Alexandra Zaïnal
Sur une idée originale de : Baudouin d'Aumeries
Soutien technique & logistique : Manuel Goepfert
Assistance : Marc-Olivier Méhu




SOURCES & CREDITS :

   NOAA